createdAt,value
2018-05-16T00:00:44.979Z,15.90
2018-05-16T00:02:51.334Z,14.67
2018-05-16T00:04:54.079Z,14.27
2018-05-16T00:06:56.879Z,15.00
2018-05-16T00:09:00.340Z,15.07
2018-05-16T00:11:03.801Z,14.10
2018-05-16T00:13:06.554Z,15.13
2018-05-16T00:15:09.297Z,14.80
2018-05-16T00:17:12.033Z,15.30
2018-05-16T00:19:14.749Z,14.70
2018-05-16T00:21:17.534Z,14.40
2018-05-16T00:23:20.239Z,15.50
2018-05-16T00:25:22.940Z,14.60
2018-05-16T00:27:25.649Z,14.30
2018-05-16T00:29:29.105Z,14.83
2018-05-16T00:31:31.817Z,13.87
2018-05-16T00:33:35.278Z,14.47
2018-05-16T00:35:38.048Z,14.73
2018-05-16T00:37:40.754Z,13.57
2018-05-16T00:39:44.247Z,14.90
2018-05-16T00:41:46.974Z,15.37
2018-05-16T00:43:49.673Z,15.20
2018-05-16T00:45:52.436Z,16.47
2018-05-16T00:47:55.125Z,16.47
2018-05-16T00:49:57.812Z,18.57
2018-05-16T00:52:00.535Z,23.53
2018-05-16T00:54:03.227Z,22.20
2018-05-16T00:56:05.925Z,19.67
2018-05-16T00:58:08.652Z,18.70
2018-05-16T01:00:12.189Z,17.97
2018-05-16T01:02:14.903Z,16.53
2018-05-16T01:04:17.592Z,16.50
2018-05-16T01:06:20.464Z,14.73
2018-05-16T01:08:23.165Z,16.03
2018-05-16T01:10:26.643Z,15.13
2018-05-16T01:12:29.362Z,15.03
2018-05-16T01:14:32.025Z,14.80
2018-05-16T01:16:34.751Z,13.80
2018-05-16T01:18:37.485Z,15.23
2018-05-16T01:20:40.201Z,15.33
2018-05-16T01:22:42.926Z,15.33
2018-05-16T01:24:46.431Z,13.90
2018-05-16T01:26:49.163Z,15.33
2018-05-16T01:28:51.858Z,14.40
2018-05-16T01:30:54.610Z,14.43
2018-05-16T01:32:57.359Z,14.70
2018-05-16T01:35:00.801Z,14.47
2018-05-16T01:37:03.470Z,15.70
2018-05-16T01:39:06.208Z,14.80
2018-05-16T01:41:09.678Z,15.10
2018-05-16T01:43:12.416Z,14.93
2018-05-16T01:45:15.244Z,14.67
2018-05-16T01:47:17.913Z,15.83
2018-05-16T01:49:20.649Z,15.53
2018-05-16T01:51:23.339Z,15.20
2018-05-16T01:53:26.080Z,14.33
2018-05-16T01:55:28.940Z,15.77
2018-05-16T01:57:32.409Z,15.77
2018-05-16T01:59:35.118Z,15.10
2018-05-16T02:01:38.590Z,15.30
2018-05-16T02:03:41.283Z,16.60
2018-05-16T02:05:44.079Z,15.03
2018-05-16T02:07:46.777Z,15.70
2018-05-16T02:09:49.743Z,16.80
2018-05-16T02:11:52.513Z,16.40
2018-05-16T02:13:55.975Z,16.40
2018-05-16T02:15:58.688Z,15.50
2018-05-16T02:18:02.123Z,16.70
2018-05-16T02:20:04.970Z,17.17
2018-05-16T02:22:07.711Z,16.30
2018-05-16T02:24:10.414Z,16.50
2018-05-16T02:26:13.952Z,17.00
2018-05-16T02:28:16.692Z,16.97
2018-05-16T02:30:20.216Z,17.13
2018-05-16T02:32:22.987Z,16.23
2018-05-16T02:34:25.715Z,17.00
2018-05-16T02:36:28.410Z,16.10
2018-05-16T02:38:31.893Z,17.60
2018-05-16T02:40:35.472Z,17.27
2018-05-16T02:42:38.204Z,18.97
2018-05-16T02:44:40.897Z,18.27
2018-05-16T02:46:43.846Z,17.90
2018-05-16T02:48:47.334Z,18.77
2018-05-16T02:50:50.830Z,18.20
2018-05-16T02:52:54.343Z,18.20
2018-05-16T02:54:57.131Z,18.50
2018-05-16T02:56:59.880Z,18.60
2018-05-16T02:59:03.369Z,19.03
2018-05-16T03:01:06.389Z,19.10
2018-05-16T03:03:09.138Z,19.60
2018-05-16T03:05:12.584Z,18.97
2018-05-16T03:07:15.324Z,18.60
2018-05-16T03:09:18.797Z,18.83
2018-05-16T03:11:21.510Z,18.67
2018-05-16T03:13:24.331Z,19.63
2018-05-16T03:15:27.042Z,19.80
2018-05-16T03:17:30.523Z,20.30
2018-05-16T03:19:33.216Z,21.03
2018-05-16T03:21:36.688Z,19.63
2018-05-16T03:23:39.411Z,19.90
2018-05-16T03:25:42.147Z,19.23
2018-05-16T03:27:44.875Z,21.23
2018-05-16T03:29:47.562Z,20.20
2018-05-16T03:31:50.259Z,22.50
2018-05-16T03:33:53.755Z,21.20
2018-05-16T03:35:56.439Z,23.10
2018-05-16T03:37:59.173Z,19.37
2018-05-16T03:40:01.866Z,23.20
2018-05-16T03:42:04.573Z,22.20
2018-05-16T03:44:07.284Z,21.40
2018-05-16T03:46:10.962Z,21.60
2018-05-16T03:48:13.696Z,22.53
2018-05-16T03:50:16.402Z,21.53
2018-05-16T03:52:19.157Z,22.70
2018-05-16T03:54:21.889Z,21.10
2018-05-16T03:56:25.348Z,24.00
2018-05-16T03:58:39.864Z,23.83
2018-05-16T04:00:54.456Z,23.57
2018-05-16T04:03:09.060Z,22.33
2018-05-16T04:05:11.778Z,22.10
2018-05-16T04:07:14.483Z,22.60
2018-05-16T04:09:17.311Z,23.47
2018-05-16T04:11:20.010Z,24.27
2018-05-16T04:13:22.721Z,22.33
2018-05-16T04:15:25.436Z,24.87
2018-05-16T04:17:28.168Z,24.77
2018-05-16T04:19:30.878Z,26.17
2018-05-16T04:21:33.596Z,26.20
2018-05-16T04:23:36.275Z,24.87
2018-05-16T04:25:38.963Z,27.17
2018-05-16T04:27:41.873Z,26.07
2018-05-16T04:29:45.328Z,25.87
2018-05-16T04:31:48.012Z,27.87
2018-05-16T04:33:50.891Z,28.13
2018-05-16T04:35:53.584Z,27.50
2018-05-16T04:37:56.283Z,27.80
2018-05-16T04:39:59.956Z,28.83
2018-05-16T04:42:02.669Z,28.00
2018-05-16T04:44:05.362Z,27.13
2018-05-16T04:46:08.143Z,28.03
2018-05-16T04:48:10.846Z,26.77
2018-05-16T04:50:13.557Z,28.27
2018-05-16T04:52:17.051Z,25.20
2018-05-16T04:54:19.740Z,27.40
2018-05-16T04:56:23.192Z,26.40
2018-05-16T04:58:25.900Z,27.00
2018-05-16T05:00:29.517Z,25.67
2018-05-16T05:02:32.992Z,26.20
2018-05-16T05:04:36.576Z,27.27
2018-05-16T05:06:39.925Z,27.37
2018-05-16T05:08:46.543Z,27.87
2018-05-16T05:10:49.226Z,27.03
2018-05-16T05:12:51.941Z,26.43
2018-05-16T05:14:54.648Z,25.50
2018-05-16T05:16:57.337Z,26.87
2018-05-16T05:19:00.035Z,26.60
2018-05-16T05:21:03.801Z,25.70
2018-05-16T05:23:06.510Z,27.03
2018-05-16T05:25:09.212Z,26.23
2018-05-16T05:27:11.914Z,25.50
2018-05-16T05:29:14.642Z,26.30
2018-05-16T05:31:17.336Z,26.17
2018-05-16T05:33:20.765Z,26.57
2018-05-16T05:35:23.502Z,26.67
2018-05-16T05:37:26.979Z,27.13
2018-05-16T05:39:29.700Z,25.73
2018-05-16T05:41:32.436Z,26.50
2018-05-16T05:43:36.213Z,26.83
2018-05-16T05:45:38.929Z,25.60
2018-05-16T05:47:42.365Z,26.37
2018-05-16T05:49:45.078Z,27.57
2018-05-16T05:51:47.780Z,26.90
2018-05-16T05:53:51.231Z,26.37
2018-05-16T05:55:53.931Z,25.07
2018-05-16T05:57:56.638Z,27.53
2018-05-16T06:00:00.193Z,26.70
2018-05-16T06:02:02.856Z,25.77
2018-05-16T06:04:05.576Z,25.60
2018-05-16T06:06:09.036Z,25.03
2018-05-16T06:08:11.726Z,26.50
2018-05-16T06:10:14.648Z,25.43
2018-05-16T06:12:17.363Z,24.70
2018-05-16T06:14:20.095Z,25.23
2018-05-16T06:16:23.546Z,25.47
2018-05-16T06:18:28.909Z,25.90
2018-05-16T06:20:34.548Z,25.97
2018-05-16T06:22:38.050Z,25.27
2018-05-16T06:24:40.713Z,23.27
2018-05-16T06:26:44.421Z,23.10
2018-05-16T06:28:47.292Z,25.60
2018-05-16T06:30:50.173Z,23.73
2018-05-16T06:32:52.886Z,24.97
2018-05-16T06:34:55.718Z,24.80
2018-05-16T06:37:05.697Z,23.40
2018-05-16T06:39:09.237Z,22.43
2018-05-16T06:41:12.714Z,24.80
2018-05-16T06:43:15.419Z,24.83
2018-05-16T06:45:18.093Z,22.60
2018-05-16T06:47:20.815Z,21.90
2018-05-16T06:49:23.534Z,22.20
2018-05-16T06:51:26.392Z,22.20
2018-05-16T06:53:29.851Z,22.53
2018-05-16T06:55:32.533Z,20.60
2018-05-16T06:57:35.493Z,20.47
2018-05-16T06:59:38.190Z,20.00
2018-05-16T07:01:40.909Z,19.10
2018-05-16T07:03:43.627Z,19.70
2018-05-16T07:05:46.329Z,19.90
2018-05-16T07:07:49.060Z,19.67
2018-05-16T07:09:51.922Z,19.23
2018-05-16T07:11:54.636Z,17.90
2018-05-16T07:13:57.366Z,18.37
2018-05-16T07:16:00.073Z,19.07
2018-05-16T07:18:02.803Z,21.20
2018-05-16T07:20:06.290Z,21.20
2018-05-16T07:22:09.286Z,55.00
2018-05-16T07:24:12.769Z,23.23
2018-05-16T07:26:15.703Z,23.33
2018-05-16T07:28:18.424Z,22.17
2018-05-16T07:30:21.230Z,20.93
2018-05-16T07:32:26.148Z,21.40
2018-05-16T07:34:28.991Z,21.20
2018-05-16T07:36:32.452Z,21.33
2018-05-16T07:38:36.611Z,21.03
2018-05-16T07:40:40.065Z,21.60
2018-05-16T07:42:42.848Z,19.90
2018-05-16T07:44:45.571Z,20.07
2018-05-16T07:46:48.291Z,19.50
2018-05-16T07:48:51.027Z,19.80
2018-05-16T07:50:53.841Z,19.67
2018-05-16T07:52:56.533Z,20.77
2018-05-16T07:54:59.607Z,21.07
2018-05-16T07:57:02.545Z,20.30
2018-05-16T07:59:05.282Z,19.10
2018-05-16T08:01:08.213Z,19.30
2018-05-16T08:03:10.991Z,18.90
2018-05-16T08:05:13.658Z,18.93
2018-05-16T08:07:16.432Z,18.67
2018-05-16T08:09:19.133Z,19.50
2018-05-16T08:11:22.595Z,19.90
2018-05-16T08:13:25.278Z,19.90
2018-05-16T08:15:28.120Z,17.07
2018-05-16T08:17:30.828Z,16.90
2018-05-16T08:19:33.557Z,16.53
2018-05-16T08:21:36.383Z,16.47
2018-05-16T08:23:39.083Z,17.83
2018-05-16T08:25:41.813Z,17.93
2018-05-16T08:27:44.514Z,17.70
2018-05-16T08:29:47.226Z,16.80
2018-05-16T08:31:50.728Z,19.17
2018-05-16T08:33:54.326Z,18.60
2018-05-16T08:35:57.280Z,19.90
2018-05-16T08:37:59.993Z,18.20
2018-05-16T08:40:02.762Z,18.17
2018-05-16T08:42:06.353Z,17.63
2018-05-16T08:44:09.798Z,19.13
2018-05-16T08:46:12.516Z,19.00
2018-05-16T08:48:15.205Z,17.80
2018-05-16T08:50:18.679Z,18.03
2018-05-16T08:52:21.423Z,17.50
2018-05-16T08:54:24.093Z,16.77
2018-05-16T08:56:26.805Z,17.30
2018-05-16T08:58:29.571Z,17.33
2018-05-16T09:00:32.269Z,16.37
2018-05-16T09:02:35.007Z,17.50
2018-05-16T09:04:37.685Z,17.00
2018-05-16T09:06:40.397Z,17.43
2018-05-16T09:08:43.252Z,15.50
2018-05-16T09:10:45.943Z,16.10
2018-05-16T09:12:48.652Z,15.00
2018-05-16T09:14:52.254Z,14.03
2018-05-16T09:16:55.724Z,13.43
2018-05-16T09:18:58.444Z,13.33
2018-05-16T09:21:01.111Z,13.30
2018-05-16T09:23:03.824Z,14.57
2018-05-16T09:25:06.562Z,12.00
2018-05-16T09:27:09.240Z,13.97
2018-05-16T09:29:12.701Z,14.23
2018-05-16T09:31:15.396Z,15.53
2018-05-16T09:33:18.909Z,14.10
2018-05-16T09:35:21.689Z,15.03
2018-05-16T09:37:24.394Z,14.73
2018-05-16T09:39:27.119Z,14.60
2018-05-16T09:41:30.590Z,14.20
2018-05-16T09:43:33.287Z,13.30
2018-05-16T09:45:36.037Z,13.00
2018-05-16T09:47:38.717Z,12.20
2018-05-16T09:49:41.412Z,13.27
2018-05-16T09:51:44.259Z,13.67
2018-05-16T09:53:46.968Z,13.47
2018-05-16T09:55:49.640Z,14.93
2018-05-16T09:57:52.383Z,13.83
2018-05-16T09:59:55.100Z,13.40
2018-05-16T10:01:57.771Z,13.17
2018-05-16T10:04:00.500Z,14.40
2018-05-16T10:06:03.215Z,12.93
2018-05-16T10:08:05.945Z,13.20
2018-05-16T10:10:08.686Z,13.23
2018-05-16T10:12:11.402Z,12.70
2018-05-16T10:14:14.149Z,13.60
2018-05-16T10:16:16.876Z,12.17
2018-05-16T10:18:19.599Z,12.67
2018-05-16T10:20:22.375Z,12.40
2018-05-16T10:22:25.072Z,12.47
2018-05-16T10:24:28.568Z,13.23
2018-05-16T10:26:32.130Z,12.13
2018-05-16T10:28:34.800Z,13.27
2018-05-16T10:30:37.498Z,11.73
2018-05-16T10:32:40.230Z,11.20
2018-05-16T10:34:42.926Z,10.67
2018-05-16T10:36:45.628Z,8.10
2018-05-16T10:38:48.331Z,8.23
2018-05-16T10:40:52.025Z,8.70
2018-05-16T10:42:55.712Z,7.70
2018-05-16T10:44:58.396Z,7.87
2018-05-16T10:47:01.961Z,8.27
2018-05-16T10:49:04.858Z,9.60
2018-05-16T10:51:07.582Z,10.00
2018-05-16T10:53:10.281Z,9.67
2018-05-16T10:55:13.030Z,10.90
2018-05-16T10:57:15.760Z,9.40
2018-05-16T10:59:18.471Z,10.20
2018-05-16T11:01:21.966Z,10.87
2018-05-16T11:03:25.484Z,9.70
2018-05-16T11:05:28.145Z,9.73
2018-05-16T11:07:30.909Z,9.87
2018-05-16T11:09:38.832Z,9.47
2018-05-16T11:11:43.111Z,8.80
2018-05-16T11:13:45.799Z,8.83
2018-05-16T11:15:49.252Z,8.37
2018-05-16T11:17:51.970Z,8.23
2018-05-16T11:19:55.406Z,8.10
2018-05-16T11:21:58.135Z,9.50
2018-05-16T11:24:01.572Z,9.70
2018-05-16T11:26:04.304Z,9.80
2018-05-16T11:28:07.007Z,9.60
2018-05-16T11:30:09.677Z,9.10
2018-05-16T11:32:19.632Z,8.73
2018-05-16T11:34:23.295Z,9.60
2018-05-16T11:36:28.966Z,9.13
2018-05-16T11:38:32.911Z,7.47
2018-05-16T11:40:35.618Z,7.10
2018-05-16T11:42:38.328Z,8.30
2018-05-16T11:44:41.059Z,7.57
2018-05-16T11:46:43.794Z,8.07
2018-05-16T11:48:46.530Z,7.03
2018-05-16T11:50:49.211Z,7.23
2018-05-16T11:52:51.987Z,7.00
2018-05-16T11:54:54.705Z,7.13
2018-05-16T11:56:57.466Z,8.20
2018-05-16T11:59:00.173Z,8.23
2018-05-16T12:01:03.621Z,8.30
2018-05-16T12:03:06.324Z,7.53
2018-05-16T12:05:09.084Z,6.93
2018-05-16T12:07:11.864Z,7.77
2018-05-16T12:09:14.621Z,6.57
2018-05-16T12:11:17.562Z,7.03
2018-05-16T12:13:21.117Z,6.90
2018-05-16T12:15:23.803Z,7.23
2018-05-16T12:17:26.569Z,7.80
2018-05-16T12:19:29.369Z,6.80
2018-05-16T12:21:34.197Z,7.70
2018-05-16T12:23:36.890Z,7.87
2018-05-16T12:25:40.355Z,7.70
2018-05-16T12:27:43.089Z,7.57
2018-05-16T12:29:45.796Z,7.40
2018-05-16T12:31:48.473Z,6.40
2018-05-16T12:33:51.220Z,6.17
2018-05-16T12:35:53.886Z,7.23
2018-05-16T12:37:56.671Z,6.10
2018-05-16T12:39:59.386Z,6.47
2018-05-16T12:42:02.058Z,6.43
2018-05-16T12:44:04.881Z,5.97
2018-05-16T12:46:08.355Z,5.60
2018-05-16T12:48:11.115Z,5.40
2018-05-16T12:50:13.849Z,5.40
2018-05-16T12:52:16.522Z,5.17
2018-05-16T12:54:19.970Z,6.50
2018-05-16T12:56:22.670Z,5.60
2018-05-16T12:58:26.082Z,4.97
2018-05-16T13:00:28.782Z,5.10
2018-05-16T13:02:39.149Z,4.87
2018-05-16T13:04:46.884Z,5.43
2018-05-16T13:06:53.660Z,5.20
2018-05-16T13:08:58.348Z,8.90
2018-05-16T13:11:02.744Z,8.43
2018-05-16T13:13:06.706Z,9.50
2018-05-16T13:15:12.147Z,7.67
2018-05-16T13:17:14.961Z,7.03
2018-05-16T13:19:17.738Z,7.83
2018-05-16T13:21:20.526Z,8.63
2018-05-16T13:23:23.469Z,9.77
2018-05-16T13:25:26.451Z,7.60
2018-05-16T13:27:30.258Z,8.60
2018-05-16T13:29:32.986Z,7.40
2018-05-16T13:31:35.713Z,8.37
2018-05-16T13:33:38.428Z,8.30
2018-05-16T13:35:41.128Z,8.90
2018-05-16T13:37:43.872Z,10.40
2018-05-16T13:39:46.599Z,9.97
2018-05-16T13:41:49.313Z,10.30
2018-05-16T13:43:52.805Z,10.13
2018-05-16T13:45:56.359Z,8.90
2018-05-16T13:47:59.135Z,10.00
2018-05-16T13:50:02.277Z,9.20
2018-05-16T13:52:05.838Z,10.30
2018-05-16T13:54:08.557Z,9.00
2018-05-16T13:56:12.040Z,9.30
2018-05-16T13:58:15.508Z,9.17
2018-05-16T14:00:18.276Z,8.90
2018-05-16T14:02:21.094Z,9.40
2018-05-16T14:04:24.638Z,9.80
2018-05-16T14:06:27.470Z,10.00
2018-05-16T14:08:30.166Z,10.40
2018-05-16T14:10:32.891Z,10.23
2018-05-16T14:12:35.595Z,10.53
2018-05-16T14:14:39.061Z,10.90
2018-05-16T14:16:41.834Z,10.90
2018-05-16T14:18:44.571Z,12.07
2018-05-16T14:20:47.360Z,12.80
2018-05-16T14:22:50.073Z,12.90
2018-05-16T14:24:52.768Z,11.93
2018-05-16T14:27:00.050Z,12.77
2018-05-16T14:29:03.225Z,11.87
2018-05-16T14:31:05.952Z,15.60
2018-05-16T14:33:08.728Z,15.40
2018-05-16T14:35:12.440Z,16.63
2018-05-16T14:37:15.127Z,14.80
2018-05-16T14:39:17.908Z,14.83
2018-05-16T14:41:20.750Z,15.23
2018-05-16T14:43:23.494Z,14.70
2018-05-16T14:45:26.231Z,16.57
2018-05-16T14:47:29.691Z,16.43
2018-05-16T14:49:33.979Z,14.30
2018-05-16T14:51:36.708Z,13.33
2018-05-16T14:53:39.430Z,13.37
2018-05-16T14:55:42.240Z,15.27
2018-05-16T14:57:46.911Z,17.30
2018-05-16T14:59:49.913Z,14.80
2018-05-16T15:01:52.768Z,18.47
2018-05-16T15:03:55.456Z,13.80
2018-05-16T15:05:58.461Z,17.27
2018-05-16T15:08:01.218Z,14.13
2018-05-16T15:10:03.936Z,14.33
2018-05-16T15:12:06.645Z,13.37
2018-05-16T15:14:09.318Z,12.60
2018-05-16T15:16:11.996Z,13.30
2018-05-16T15:18:14.784Z,11.20
2018-05-16T15:20:17.510Z,12.33
2018-05-16T15:22:20.211Z,14.53
2018-05-16T15:24:24.719Z,13.57
2018-05-16T15:26:27.422Z,17.17
2018-05-16T15:28:30.136Z,17.20
2018-05-16T15:30:32.916Z,17.17
2018-05-16T15:32:35.672Z,17.53
2018-05-16T15:34:38.360Z,15.43
2018-05-16T15:36:41.061Z,16.93
2018-05-16T15:38:54.885Z,13.83
2018-05-16T15:40:58.741Z,15.67
2018-05-16T15:43:02.235Z,14.03
2018-05-16T15:45:05.869Z,15.13
2018-05-16T15:47:09.774Z,12.77
2018-05-16T15:49:12.488Z,11.83
2018-05-16T15:51:15.212Z,10.37
2018-05-16T15:53:18.003Z,10.27
2018-05-16T15:55:20.820Z,15.07
2018-05-16T15:57:23.477Z,11.13
2018-05-16T15:59:26.214Z,9.50
2018-05-16T16:01:28.935Z,10.00
2018-05-16T16:03:31.633Z,10.00
2018-05-16T16:05:34.904Z,12.63
2018-05-16T16:07:37.655Z,12.73
2018-05-16T16:09:40.489Z,11.57
2018-05-16T16:11:43.197Z,11.70
2018-05-16T16:13:45.948Z,10.13
2018-05-16T16:15:49.524Z,10.70
2018-05-16T16:17:52.218Z,9.97
2018-05-16T16:19:54.966Z,10.83
2018-05-16T16:21:57.648Z,10.80
2018-05-16T16:24:00.378Z,10.90
2018-05-16T16:26:03.087Z,13.17
2018-05-16T16:28:05.975Z,14.50
2018-05-16T16:30:08.705Z,16.03
2018-05-16T16:32:12.177Z,17.67
2018-05-16T16:34:14.972Z,16.23
2018-05-16T16:36:19.260Z,15.70
2018-05-16T16:38:22.042Z,16.30
2018-05-16T16:40:24.785Z,16.67
2018-05-16T16:42:28.639Z,15.37
2018-05-16T16:44:31.362Z,15.60
2018-05-16T16:46:34.077Z,15.17
2018-05-16T16:48:36.976Z,13.97
2018-05-16T16:50:40.480Z,13.80
2018-05-16T16:52:44.884Z,14.40
2018-05-16T16:54:47.606Z,14.80
2018-05-16T16:56:50.314Z,14.17
2018-05-16T16:58:53.046Z,14.47
2018-05-16T17:00:55.843Z,14.60
2018-05-16T17:03:00.957Z,13.90
2018-05-16T17:05:03.752Z,13.80
2018-05-16T17:07:06.663Z,13.03
2018-05-16T17:09:10.512Z,12.60
2018-05-16T17:11:14.028Z,12.10
2018-05-16T17:13:16.718Z,12.10
2018-05-16T17:15:19.422Z,11.90
2018-05-16T17:17:22.149Z,10.63
2018-05-16T17:19:24.813Z,11.03
2018-05-16T17:21:28.336Z,10.00
2018-05-16T17:23:31.009Z,10.80
2018-05-16T17:25:33.697Z,10.47
2018-05-16T17:27:36.401Z,11.00
2018-05-16T17:29:39.286Z,10.10
2018-05-16T17:31:42.015Z,9.30
2018-05-16T17:33:44.840Z,9.90
2018-05-16T17:35:47.513Z,11.03
2018-05-16T17:37:50.411Z,9.67
2018-05-16T17:39:53.120Z,8.50
2018-05-16T17:41:55.825Z,7.90
2018-05-16T17:44:03.782Z,7.50
2018-05-16T17:46:07.271Z,7.57
2018-05-16T17:48:10.024Z,6.97
2018-05-16T17:50:12.777Z,7.10
2018-05-16T17:52:15.481Z,7.27
2018-05-16T17:54:18.234Z,6.47
2018-05-16T17:56:20.906Z,6.33
2018-05-16T17:58:23.838Z,6.73
2018-05-16T18:00:26.535Z,6.93
2018-05-16T18:02:30.134Z,6.90
2018-05-16T18:04:32.864Z,6.77
2018-05-16T18:06:35.667Z,6.97
2018-05-16T18:08:39.180Z,5.87
2018-05-16T18:10:42.815Z,6.57
2018-05-16T18:12:52.454Z,5.23
2018-05-16T18:17:32.559Z,6.20
2018-05-16T18:19:35.382Z,6.63
2018-05-16T18:21:38.094Z,6.80
2018-05-16T18:23:41.608Z,6.90
2018-05-16T18:25:44.406Z,6.33
2018-05-16T18:27:47.886Z,7.00
2018-05-16T18:29:50.611Z,7.13
2018-05-16T18:31:53.308Z,7.07
2018-05-16T18:33:56.059Z,6.80
2018-05-16T18:35:58.896Z,7.47
2018-05-16T18:38:01.661Z,6.80
2018-05-16T18:40:04.439Z,6.90
2018-05-16T18:42:07.184Z,6.60
2018-05-16T18:44:09.927Z,6.53
2018-05-16T18:46:13.735Z,6.57
2018-05-16T18:48:17.222Z,8.07
2018-05-16T18:50:20.711Z,7.10
2018-05-16T18:52:23.862Z,7.27
2018-05-16T18:54:26.617Z,7.10
2018-05-16T18:56:30.376Z,6.53
2018-05-16T18:58:33.156Z,6.10
2018-05-16T19:00:36.708Z,7.50
2018-05-16T19:02:39.378Z,7.07
2018-05-16T19:04:42.051Z,6.80
2018-05-16T19:06:45.040Z,6.73
2018-05-16T19:08:47.801Z,7.03
2018-05-16T19:10:50.529Z,6.60
2018-05-16T19:12:53.232Z,6.57
2018-05-16T19:14:56.758Z,6.70
2018-05-16T19:16:59.617Z,7.07
2018-05-16T19:19:03.125Z,6.57
2018-05-16T19:21:05.882Z,7.10
2018-05-16T19:23:09.339Z,6.20
2018-05-16T19:25:12.042Z,6.73
2018-05-16T19:27:15.174Z,7.07
2018-05-16T19:29:17.883Z,7.00
2018-05-16T19:31:20.671Z,6.20
2018-05-16T19:33:23.950Z,8.40
2018-05-16T19:35:26.673Z,7.50
2018-05-16T19:37:30.195Z,7.10
2018-05-16T19:39:32.944Z,6.70
2018-05-16T19:41:36.485Z,7.40
2018-05-16T19:43:39.192Z,6.80
2018-05-16T19:45:42.036Z,6.80
2018-05-16T19:47:44.754Z,7.00
2018-05-16T19:49:47.652Z,6.93
2018-05-16T19:51:52.194Z,7.47
2018-05-16T19:53:54.912Z,6.27
2018-05-16T19:55:57.633Z,5.80
2018-05-16T19:58:01.509Z,8.07
2018-05-16T20:00:05.088Z,6.23
2018-05-16T20:02:07.798Z,7.57
2018-05-16T20:04:11.257Z,6.60
2018-05-16T20:06:13.934Z,7.13
2018-05-16T20:08:17.196Z,6.73
2018-05-16T20:10:19.899Z,6.90
2018-05-16T20:12:22.592Z,6.80
2018-05-16T20:14:25.384Z,7.63
2018-05-16T20:16:28.080Z,7.80
2018-05-16T20:18:31.974Z,8.00
2018-05-16T20:20:35.444Z,7.33
2018-05-16T20:22:38.121Z,8.97
2018-05-16T20:24:40.859Z,8.00
2018-05-16T20:26:43.556Z,9.33
2018-05-16T20:28:46.293Z,7.50
2018-05-16T20:30:48.999Z,8.03
2018-05-16T20:32:51.712Z,7.33
2018-05-16T20:34:54.440Z,8.83
2018-05-16T20:36:57.140Z,8.43
2018-05-16T20:38:59.867Z,8.47
2018-05-16T20:41:03.578Z,8.50
2018-05-16T20:43:06.284Z,8.83
2018-05-16T20:45:09.056Z,7.67
2018-05-16T20:47:11.780Z,8.43
2018-05-16T20:49:14.504Z,9.13
2018-05-16T20:51:17.218Z,8.87
2018-05-16T20:53:19.936Z,9.63
2018-05-16T20:55:23.412Z,9.43
2018-05-16T20:57:26.901Z,9.80
2018-05-16T20:59:30.372Z,9.67
2018-05-16T21:01:33.107Z,10.87
2018-05-16T21:03:35.799Z,11.30
2018-05-16T21:05:38.530Z,10.40
2018-05-16T21:07:41.259Z,10.97
2018-05-16T21:09:43.955Z,9.50
2018-05-16T21:11:46.696Z,10.00
2018-05-16T21:13:49.390Z,9.50
2018-05-16T21:15:52.127Z,9.20
2018-05-16T21:17:56.722Z,9.10
2018-05-16T21:19:59.448Z,9.50
2018-05-16T21:22:02.173Z,9.00
2018-05-16T21:24:04.859Z,8.93
2018-05-16T21:26:07.608Z,8.90
2018-05-16T21:28:10.310Z,8.67
2018-05-16T21:30:14.169Z,7.90
2018-05-16T21:32:16.907Z,8.43
2018-05-16T21:34:19.596Z,8.97
2018-05-16T21:36:23.101Z,9.87
2018-05-16T21:38:25.824Z,8.20
2018-05-16T21:40:29.312Z,8.37
2018-05-16T21:42:32.034Z,8.10
2018-05-16T21:44:35.590Z,8.70
2018-05-16T21:46:38.270Z,8.37
2018-05-16T21:48:40.984Z,8.73
2018-05-16T21:50:43.716Z,10.57
2018-05-16T21:52:46.420Z,8.00
2018-05-16T21:54:49.979Z,8.37
2018-05-16T21:56:52.676Z,8.07
2018-05-16T21:58:55.384Z,8.63
2018-05-16T22:00:58.064Z,8.60
2018-05-16T22:03:00.788Z,8.03
2018-05-16T22:05:03.550Z,8.63
2018-05-16T22:07:06.248Z,9.13
2018-05-16T22:09:09.000Z,8.50
2018-05-16T22:11:11.699Z,8.20
2018-05-16T22:13:14.394Z,8.27
2018-05-16T22:15:17.140Z,9.60
2018-05-16T22:17:19.882Z,8.17
2018-05-16T22:19:22.606Z,9.97
2018-05-16T22:21:25.308Z,9.10
2018-05-16T22:23:28.033Z,8.30
2018-05-16T22:25:32.581Z,8.47
2018-05-16T22:27:35.309Z,8.40
2018-05-16T22:29:38.027Z,8.70
2018-05-16T22:31:46.386Z,9.70
2018-05-16T22:33:54.921Z,8.20
2018-05-16T22:36:03.281Z,7.73
2018-05-16T22:38:11.691Z,9.03
2018-05-16T22:40:20.176Z,8.10
2018-05-16T22:42:28.431Z,8.13
2018-05-16T22:44:31.129Z,7.87
2018-05-16T22:46:33.826Z,8.10
2018-05-16T22:48:37.303Z,6.80
2018-05-16T22:50:40.039Z,7.27
2018-05-16T22:52:42.736Z,6.60
2018-05-16T22:54:45.418Z,7.27
2018-05-16T22:56:48.181Z,7.50
2018-05-16T22:58:50.864Z,7.63
2018-05-16T23:00:53.583Z,7.50
2018-05-16T23:02:57.010Z,6.50
2018-05-16T23:04:59.687Z,7.03
2018-05-16T23:07:02.443Z,7.00
2018-05-16T23:09:05.185Z,7.00
2018-05-16T23:11:07.887Z,6.10
2018-05-16T23:13:11.339Z,6.00
2018-05-16T23:15:14.037Z,6.87
2018-05-16T23:17:17.533Z,6.20
2018-05-16T23:19:20.224Z,6.30
2018-05-16T23:21:23.689Z,6.27
2018-05-16T23:23:27.219Z,6.07
2018-05-16T23:25:30.686Z,5.87
2018-05-16T23:27:33.397Z,5.77
2018-05-16T23:29:36.853Z,5.30
2018-05-16T23:31:39.540Z,5.53
2018-05-16T23:33:42.265Z,5.03
2018-05-16T23:35:44.965Z,6.60
2018-05-16T23:37:47.667Z,5.27
2018-05-16T23:39:50.364Z,5.60
2018-05-16T23:41:53.835Z,5.30
2018-05-16T23:43:56.714Z,5.50
2018-05-16T23:45:59.412Z,5.20
2018-05-16T23:48:02.892Z,5.50
2018-05-16T23:50:05.594Z,5.77
2018-05-16T23:52:08.374Z,5.43
2018-05-16T23:54:11.087Z,4.70
2018-05-16T23:56:13.796Z,5.30
2018-05-16T23:58:16.719Z,4.90
